Adrian, Oregon
Current Conditions -  °F | °C
As of 12:53 AM on Friday 19 Dec 2014 (Local Time) from KONO Reporting Station
Haze Haze  
Wind Chill: 36°   Ceiling: 7500
Heat Index: 36°   Visibility: 6mi
Dew Point: 34°   Wind: 3mph
Humidity: 93%   Direction: 250°WSW
Pressure: 30.09"   Gusts: NA
Location:  43.74°N, 117.07°W
Report Text: KONO 190753Z AUTO 25003KT 6SM BR OVC075 02/01 A3009 RMK AO2 SLP204 T00220011
Loading
Personal Weather Stations






























Interactive Weather Map New forecast layout! Learn more

10-Day Weather Forecast

Advertisements
Track Severe Weather on mobile